createdAt,value
2023-04-21T00:00:10.071Z,99610.56
2023-04-21T00:02:41.918Z,99600.25
2023-04-21T00:05:14.176Z,99599.97
2023-04-21T00:07:41.840Z,99601.19
2023-04-21T00:10:10.067Z,99600.53
2023-04-21T00:12:38.449Z,99604.22
2023-04-21T00:15:06.281Z,99601.91
2023-04-21T00:17:33.723Z,99597.94
2023-04-21T00:20:00.878Z,99593.59
2023-04-21T00:22:28.138Z,99600.34
2023-04-21T00:24:55.164Z,99598.69
2023-04-21T00:27:22.313Z,99599.03
2023-04-21T00:29:49.510Z,99590.56
2023-04-21T00:32:17.574Z,99595.91
2023-04-21T00:34:44.641Z,99594.06
2023-04-21T00:37:12.418Z,99593.59
2023-04-21T00:39:40.181Z,99588.63
2023-04-21T00:42:07.270Z,99587.97
2023-04-21T00:44:36.186Z,99584.81
2023-04-21T00:47:04.384Z,99582.50
2023-04-21T00:49:31.605Z,99584.53
2023-04-21T00:51:58.894Z,99577.19
2023-04-21T00:54:27.164Z,99573.69
2023-04-21T00:56:55.801Z,99569.19
2023-04-21T00:59:23.449Z,99567.16
2023-04-21T01:01:50.696Z,99573.50
2023-04-21T01:04:17.796Z,99575.53
2023-04-21T01:06:45.421Z,99564.19
2023-04-21T01:09:12.848Z,99571.38
2023-04-21T01:11:40.117Z,99567.22
2023-04-21T01:14:08.322Z,99570.63
2023-04-21T01:16:35.599Z,99568.66
2023-04-21T01:19:06.224Z,99564.69
2023-04-21T01:21:43.134Z,99561.38
2023-04-21T01:24:11.886Z,99564.41
2023-04-21T01:26:39.450Z,99557.56
2023-04-21T01:29:06.964Z,99555.56
2023-04-21T01:31:34.112Z,99565.44
2023-04-21T01:34:04.807Z,99559.16
2023-04-21T01:36:32.113Z,99561.50
2023-04-21T01:38:59.309Z,99561.88
2023-04-21T01:41:26.408Z,99552.91
2023-04-21T01:43:54.858Z,99553.09
2023-04-21T01:46:24.857Z,99553.28
2023-04-21T01:48:52.054Z,99548.66
2023-04-21T01:51:19.782Z,99554.81
2023-04-21T01:53:46.897Z,99556.34
2023-04-21T01:56:15.540Z,99558.19
2023-04-21T01:58:42.629Z,99550.69
2023-04-21T02:01:09.741Z,99549.41
2023-04-21T02:03:37.121Z,99550.06
2023-04-21T02:06:04.599Z,99543.03
2023-04-21T02:08:31.709Z,99550.53
2023-04-21T02:11:01.853Z,99554.88
2023-04-21T02:13:28.952Z,99557.06
2023-04-21T02:16:06.170Z,99558.25
2023-04-21T02:18:40.170Z,99557.56
2023-04-21T02:21:07.521Z,99555.44
2023-04-21T02:23:34.537Z,99553.78
2023-04-21T02:26:01.729Z,99563.47
2023-04-21T02:28:29.119Z,99565.94
2023-04-21T02:30:56.160Z,99558.25
2023-04-21T02:33:23.788Z,99554.19
2023-04-21T02:35:50.794Z,99551.72
2023-04-21T02:38:17.878Z,99560.03
2023-04-21T02:40:44.887Z,99549.53
2023-04-21T02:43:14.738Z,99550.19
2023-04-21T02:45:41.872Z,99553.31
2023-04-21T02:48:09.015Z,99554.81
2023-04-21T02:50:36.508Z,99550.31
2023-04-21T02:53:03.688Z,99554.47
2023-04-21T02:55:31.054Z,99552.91
2023-04-21T02:57:58.033Z,99557.91
2023-04-21T03:00:26.301Z,99554.69
2023-04-21T03:02:53.804Z,99553.31
2023-04-21T03:05:21.363Z,99547.44
2023-04-21T03:07:48.397Z,99555.56
2023-04-21T03:10:15.483Z,99552.16
2023-04-21T03:12:42.773Z,99548.56
2023-04-21T03:15:09.810Z,99561.50
2023-04-21T03:17:37.401Z,99566.47
2023-04-21T03:20:07.000Z,99564.53
2023-04-21T03:22:40.836Z,99569.25
2023-04-21T03:25:08.125Z,99569.03
2023-04-21T03:27:35.356Z,99573.22
2023-04-21T03:30:04.539Z,99566.56
2023-04-21T03:32:31.908Z,99567.91
2023-04-21T03:34:59.065Z,99568.34
2023-04-21T03:37:26.239Z,99560.13
2023-04-21T03:39:53.394Z,99572.19
2023-04-21T03:42:20.908Z,99570.72
2023-04-21T03:44:49.130Z,99559.28
2023-04-21T03:47:17.704Z,99567.00
2023-04-21T03:49:44.778Z,99564.66
2023-04-21T03:52:12.108Z,99569.19
2023-04-21T03:54:39.247Z,99570.22
2023-04-21T03:57:06.197Z,99563.22
2023-04-21T03:59:33.287Z,99562.41
2023-04-21T04:02:00.431Z,99563.47
2023-04-21T04:04:27.588Z,99561.94
2023-04-21T04:06:55.000Z,99563.38
2023-04-21T04:09:22.101Z,99567.97
2023-04-21T04:11:49.225Z,99552.97
2023-04-21T04:14:16.541Z,99558.25
2023-04-21T04:16:43.559Z,99553.69
2023-04-21T04:19:11.038Z,99555.31
2023-04-21T04:21:38.342Z,99549.72
2023-04-21T04:24:05.535Z,99547.06
2023-04-21T04:26:34.215Z,99551.78
2023-04-21T04:29:02.494Z,99549.03
2023-04-21T04:31:30.525Z,99557.44
2023-04-21T04:33:57.878Z,99549.38
2023-04-21T04:36:25.286Z,99551.91
2023-04-21T04:38:52.350Z,99549.03
2023-04-21T04:41:21.086Z,99552.16
2023-04-21T04:43:48.414Z,99556.66
2023-04-21T04:46:15.444Z,99550.84
2023-04-21T04:48:42.539Z,99544.63
2023-04-21T04:51:09.662Z,99549.16
2023-04-21T04:53:36.800Z,99548.69
2023-04-21T04:56:03.907Z,99541.41
2023-04-21T04:58:31.005Z,99543.91
2023-04-21T05:00:57.982Z,99548.06
2023-04-21T05:03:25.244Z,99544.97
2023-04-21T05:05:52.355Z,99547.09
2023-04-21T05:08:19.432Z,99544.69
2023-04-21T05:10:46.488Z,99550.59
2023-04-21T05:13:13.530Z,99549.63
2023-04-21T05:15:40.573Z,99538.91
2023-04-21T05:18:07.936Z,99545.69
2023-04-21T05:20:35.229Z,99530.56
2023-04-21T05:23:02.374Z,99531.50
2023-04-21T05:25:29.736Z,99527.19
2023-04-21T05:27:56.731Z,99526.63
2023-04-21T05:30:23.840Z,99511.41
2023-04-21T05:32:51.015Z,99518.91
2023-04-21T05:35:18.221Z,99525.34
2023-04-21T05:37:45.274Z,99521.25
2023-04-21T05:40:12.375Z,99531.41
2023-04-21T05:42:39.429Z,99532.81
2023-04-21T05:45:07.077Z,99526.69
2023-04-21T05:47:34.147Z,99523.22
2023-04-21T05:50:01.234Z,99526.34
2023-04-21T05:52:28.280Z,99524.38
2023-04-21T05:54:55.293Z,99524.00
2023-04-21T05:57:22.315Z,99516.03
2023-04-21T05:59:49.332Z,99515.50
2023-04-21T06:02:16.467Z,99513.53
2023-04-21T06:04:43.913Z,99509.19
2023-04-21T06:07:13.731Z,99512.31
2023-04-21T06:09:41.540Z,99504.69
2023-04-21T06:12:08.644Z,99509.31
2023-04-21T06:14:35.753Z,99505.94
2023-04-21T06:17:02.825Z,99504.28
2023-04-21T06:19:29.886Z,99506.19
2023-04-21T06:21:57.561Z,99509.31
2023-04-21T06:24:25.407Z,99518.34
2023-04-21T06:26:53.594Z,99515.69
2023-04-21T06:29:21.158Z,99514.09
2023-04-21T06:31:48.483Z,99510.69
2023-04-21T06:34:16.084Z,99515.47
2023-04-21T06:36:43.382Z,99507.56
2023-04-21T06:39:10.506Z,99513.13
2023-04-21T06:41:37.578Z,99504.13
2023-04-21T06:44:04.561Z,99498.31
2023-04-21T06:46:31.555Z,99502.22
2023-04-21T06:48:58.668Z,99503.19
2023-04-21T06:51:25.747Z,99494.69
2023-04-21T06:53:52.755Z,99494.63
2023-04-21T06:56:19.886Z,99495.50
2023-04-21T06:58:47.174Z,99494.91
2023-04-21T07:01:14.262Z,99489.13
2023-04-21T07:03:41.600Z,99487.13
2023-04-21T07:06:08.902Z,99479.31
2023-04-21T07:08:35.960Z,99489.66
2023-04-21T07:11:03.147Z,99486.31
2023-04-21T07:13:30.227Z,99479.34
2023-04-21T07:15:57.253Z,99483.53
2023-04-21T07:18:24.539Z,99478.72
2023-04-21T07:20:51.658Z,99472.25
2023-04-21T07:23:19.208Z,99472.75
2023-04-21T07:25:46.360Z,99473.31
2023-04-21T07:28:16.216Z,99470.75
2023-04-21T07:30:43.517Z,99469.00
2023-04-21T07:33:11.437Z,99464.38
2023-04-21T07:35:38.480Z,99466.22
2023-04-21T07:38:05.598Z,99455.84
2023-04-21T07:40:32.704Z,99464.38
2023-04-21T07:42:59.759Z,99447.50
2023-04-21T07:45:26.915Z,99449.53
2023-04-21T07:47:54.443Z,99448.72
2023-04-21T07:50:21.494Z,99451.41
2023-04-21T07:52:48.491Z,99446.78
2023-04-21T07:55:15.950Z,99443.69
2023-04-21T07:57:43.094Z,99439.25
2023-04-21T08:00:11.045Z,99434.63
2023-04-21T08:02:41.665Z,99434.47
2023-04-21T08:05:09.270Z,99430.94
2023-04-21T08:07:36.840Z,99425.16
2023-04-21T08:10:04.368Z,99417.69
2023-04-21T08:12:31.580Z,99414.31
2023-04-21T08:14:58.725Z,99418.78
2023-04-21T08:17:25.942Z,99417.78
2023-04-21T08:19:53.105Z,99419.22
2023-04-21T08:22:20.677Z,99421.03
2023-04-21T08:24:47.976Z,99415.34
2023-04-21T08:27:14.964Z,99414.38
2023-04-21T08:29:42.085Z,99415.53
2023-04-21T08:32:09.265Z,99429.41
2023-04-21T08:34:36.357Z,99408.50
2023-04-21T08:37:03.341Z,99412.38
2023-04-21T08:39:30.641Z,99407.63
2023-04-21T08:41:59.219Z,99402.41
2023-04-21T08:44:26.536Z,99397.41
2023-04-21T08:46:56.817Z,99397.16
2023-04-21T08:49:24.797Z,99393.97
2023-04-21T08:51:51.959Z,99385.81
2023-04-21T08:54:18.967Z,99388.88
2023-04-21T08:56:49.685Z,99385.53
2023-04-21T08:59:16.721Z,99384.16
2023-04-21T09:02:13.208Z,99383.38
2023-04-21T09:04:48.342Z,99376.19
2023-04-21T09:07:34.527Z,99374.81
2023-04-21T09:10:01.900Z,99375.22
2023-04-21T09:12:32.142Z,99362.94
2023-04-21T09:15:01.035Z,99357.69
2023-04-21T09:17:33.634Z,99352.41
2023-04-21T09:20:14.497Z,99360.31
2023-04-21T09:22:41.887Z,99350.28
2023-04-21T09:25:09.163Z,99345.50
2023-04-21T09:27:37.685Z,99352.19
2023-04-21T09:30:07.436Z,99341.31
2023-04-21T09:32:39.322Z,99336.56
2023-04-21T09:35:10.426Z,99321.75
2023-04-21T09:37:38.898Z,99323.22
2023-04-21T09:40:06.904Z,99317.31
2023-04-21T09:42:37.125Z,99325.25
2023-04-21T09:47:41.950Z,99322.13
2023-04-21T09:50:12.715Z,99317.97
2023-04-21T09:52:40.960Z,99304.22
2023-04-21T09:55:18.886Z,99314.63
2023-04-21T09:57:50.885Z,99322.34
2023-04-21T10:00:18.927Z,99312.66
2023-04-21T10:02:50.318Z,99314.03
2023-04-21T10:05:17.857Z,99303.91
2023-04-21T10:07:46.441Z,99299.00
2023-04-21T10:10:31.962Z,99292.13
2023-04-21T10:12:59.677Z,99291.16
2023-04-21T10:15:40.891Z,99292.31
2023-04-21T10:18:20.377Z,99285.25
2023-04-21T10:20:58.213Z,99281.16
2023-04-21T10:23:54.932Z,99284.53
2023-04-21T10:26:25.876Z,99273.69
2023-04-21T10:28:52.948Z,99271.16
2023-04-21T10:31:29.639Z,99272.31
2023-04-21T10:34:06.177Z,99270.94
2023-04-21T10:36:54.159Z,99270.72
2023-04-21T10:39:31.509Z,99260.09
2023-04-21T10:42:19.884Z,99261.19
2023-04-21T10:44:56.548Z,99256.56
2023-04-21T10:47:45.450Z,99250.53
2023-04-21T10:50:22.820Z,99252.72
2023-04-21T10:53:08.796Z,99253.28
2023-04-21T10:55:36.041Z,99246.44
2023-04-21T10:58:05.395Z,99259.22
2023-04-21T11:00:33.008Z,99257.22
2023-04-21T11:03:03.119Z,99255.84
2023-04-21T11:05:38.915Z,99253.91
2023-04-21T11:08:15.162Z,99244.19
2023-04-21T11:11:09.010Z,99240.81
2023-04-21T11:13:36.066Z,99244.00
2023-04-21T11:16:06.516Z,99237.78
2023-04-21T11:18:44.545Z,99235.91
2023-04-21T11:21:21.711Z,99227.94
2023-04-21T11:23:50.810Z,99231.44
2023-04-21T11:26:18.124Z,99224.00
2023-04-21T11:28:49.695Z,99216.66
2023-04-21T11:31:16.947Z,99226.00
2023-04-21T11:33:44.019Z,99229.28
2023-04-21T11:36:11.053Z,99223.03
2023-04-21T11:38:41.555Z,99211.38
2023-04-21T11:41:12.519Z,99210.28
2023-04-21T11:43:39.733Z,99204.38
2023-04-21T11:46:13.925Z,99195.63
2023-04-21T11:48:41.493Z,99193.06
2023-04-21T11:51:15.364Z,99193.25
2023-04-21T11:53:42.551Z,99194.72
2023-04-21T11:56:12.002Z,99194.66
2023-04-21T11:58:39.940Z,99181.31
2023-04-21T12:01:10.110Z,99185.06
2023-04-21T12:03:37.533Z,99189.69
2023-04-21T12:06:05.008Z,99183.44
2023-04-21T12:08:32.480Z,99186.59
2023-04-21T12:10:59.987Z,99187.50
2023-04-21T12:13:31.458Z,99181.16
2023-04-21T12:15:58.583Z,99181.91
2023-04-21T12:18:28.390Z,99174.72
2023-04-21T12:20:55.555Z,99171.44
2023-04-21T12:23:22.628Z,99181.00
2023-04-21T12:25:51.378Z,99178.94
2023-04-21T12:28:18.810Z,99176.38
2023-04-21T12:30:45.953Z,99170.25
2023-04-21T12:33:13.355Z,99169.69
2023-04-21T12:35:40.597Z,99173.22
2023-04-21T12:38:07.607Z,99161.88
2023-04-21T12:40:35.929Z,99160.44
2023-04-21T12:43:03.075Z,99168.19
2023-04-21T12:45:31.997Z,99158.84
2023-04-21T12:47:59.692Z,99161.13
2023-04-21T12:50:26.839Z,99161.56
2023-04-21T12:52:55.326Z,99161.03
2023-04-21T12:55:23.159Z,99159.25
2023-04-21T12:57:50.802Z,99155.03
2023-04-21T13:00:18.032Z,99150.28
2023-04-21T13:02:45.319Z,99148.81
2023-04-21T13:05:13.423Z,99151.31
2023-04-21T13:07:41.565Z,99138.28
2023-04-21T13:10:09.128Z,99134.31
2023-04-21T13:12:36.273Z,99133.81
2023-04-21T13:15:03.906Z,99123.84
2023-04-21T13:17:32.841Z,99117.47
2023-04-21T13:20:00.218Z,99123.91
2023-04-21T13:22:27.379Z,99113.69
2023-04-21T13:24:54.401Z,99114.91
2023-04-21T13:27:21.396Z,99112.28
2023-04-21T13:29:49.340Z,99109.06
2023-04-21T13:32:16.541Z,99107.75
2023-04-21T13:34:43.607Z,99096.13
2023-04-21T13:37:12.687Z,99111.06
2023-04-21T13:39:40.125Z,99095.78
2023-04-21T13:42:07.344Z,99099.41
2023-04-21T13:44:34.441Z,99097.19
2023-04-21T13:47:01.612Z,99094.06
2023-04-21T13:49:28.918Z,99088.41
2023-04-21T13:51:56.015Z,99087.91
2023-04-21T13:54:23.115Z,99088.91
2023-04-21T13:56:51.149Z,99092.50
2023-04-21T13:59:21.209Z,99087.09
2023-04-21T14:01:48.433Z,99078.38
2023-04-21T14:04:15.855Z,99077.66
2023-04-21T14:06:43.072Z,99072.41
2023-04-21T14:09:10.963Z,99077.06
2023-04-21T14:11:38.247Z,99067.31
2023-04-21T14:14:09.599Z,99074.63
2023-04-21T14:16:39.486Z,99074.53
2023-04-21T14:19:07.031Z,99079.63
2023-04-21T14:21:34.849Z,99072.22
2023-04-21T14:24:02.148Z,99071.16
2023-04-21T14:26:29.220Z,99067.88
2023-04-21T14:28:56.632Z,99077.06
2023-04-21T14:31:23.744Z,99072.22
2023-04-21T14:33:51.038Z,99070.59
2023-04-21T14:36:18.358Z,99081.16
2023-04-21T14:38:45.453Z,99070.00
2023-04-21T14:41:12.623Z,99075.66
2023-04-21T14:43:39.745Z,99068.03
2023-04-21T14:46:07.546Z,99078.13
2023-04-21T14:48:34.778Z,99075.91
2023-04-21T14:51:01.919Z,99074.25
2023-04-21T14:53:29.044Z,99065.00
2023-04-21T14:55:56.083Z,99067.03
2023-04-21T14:58:23.261Z,99066.94
2023-04-21T15:00:50.635Z,99057.88
2023-04-21T15:03:17.838Z,99069.81
2023-04-21T15:05:45.181Z,99065.13
2023-04-21T15:08:15.349Z,99065.13
2023-04-21T15:10:42.421Z,99066.31
2023-04-21T15:13:09.648Z,99068.28
2023-04-21T15:15:36.645Z,99067.69
2023-04-21T15:18:03.965Z,99070.97
2023-04-21T15:20:43.825Z,99069.34
2023-04-21T15:23:12.544Z,99062.84
2023-04-21T15:25:40.469Z,99065.06
2023-04-21T15:28:07.862Z,99066.16
2023-04-21T15:30:34.968Z,99073.19
2023-04-21T15:33:02.562Z,99067.13
2023-04-21T15:35:29.769Z,99068.41
2023-04-21T15:37:56.735Z,99066.31
2023-04-21T15:40:24.092Z,99059.00
2023-04-21T15:42:51.276Z,99060.63
2023-04-21T15:45:18.537Z,99066.63
2023-04-21T15:47:45.836Z,99067.19
2023-04-21T15:50:13.037Z,99067.13
2023-04-21T15:52:43.395Z,99076.75
2023-04-21T15:55:12.223Z,99077.25
2023-04-21T15:57:39.988Z,99067.69
2023-04-21T16:00:10.485Z,99072.63
2023-04-21T16:02:38.215Z,99070.66
2023-04-21T16:05:06.252Z,99065.97
2023-04-21T16:07:33.758Z,99065.28
2023-04-21T16:10:01.104Z,99073.38
2023-04-21T16:12:29.130Z,99072.38
2023-04-21T16:15:04.082Z,99077.75
2023-04-21T16:17:43.573Z,99076.09
2023-04-21T16:20:12.333Z,99081.97
2023-04-21T16:22:39.484Z,99090.00
2023-04-21T16:25:06.864Z,99089.03
2023-04-21T16:27:33.968Z,99088.44
2023-04-21T16:30:01.000Z,99090.22
2023-04-21T16:32:28.194Z,99075.75
2023-04-21T16:34:55.983Z,99079.97
2023-04-21T16:37:23.789Z,99085.47
2023-04-21T16:39:58.081Z,99087.72
2023-04-21T16:42:25.137Z,99092.06
2023-04-21T16:44:58.525Z,99085.47
2023-04-21T16:47:25.971Z,99090.53
2023-04-21T16:49:53.154Z,99083.47
2023-04-21T16:52:20.238Z,99081.13
2023-04-21T16:54:47.253Z,99091.06
2023-04-21T16:57:14.275Z,99077.13
2023-04-21T16:59:41.444Z,99083.19
2023-04-21T17:02:08.710Z,99086.34
2023-04-21T17:04:37.544Z,99089.03
2023-04-21T17:07:04.841Z,99086.34
2023-04-21T17:09:31.865Z,99085.53
2023-04-21T17:11:59.706Z,99084.94
2023-04-21T17:14:26.904Z,99081.66
2023-04-21T17:16:54.818Z,99090.91
2023-04-21T17:19:22.771Z,99075.81
2023-04-21T17:21:49.983Z,99082.69
2023-04-21T17:24:17.017Z,99077.41
2023-04-21T17:26:44.090Z,99077.03
2023-04-21T17:29:11.358Z,99079.50
2023-04-21T17:31:38.660Z,99067.88
2023-04-21T17:34:06.287Z,99071.63
2023-04-21T17:36:33.710Z,99069.84
2023-04-21T17:39:00.777Z,99071.94
2023-04-21T17:41:28.026Z,99069.69
2023-04-21T17:43:55.294Z,99076.38
2023-04-21T17:46:24.881Z,99062.75
2023-04-21T17:48:52.836Z,99061.31
2023-04-21T17:51:20.016Z,99062.41
2023-04-21T17:53:47.188Z,99057.47
2023-04-21T17:56:14.605Z,99061.44
2023-04-21T17:58:54.291Z,99052.38
2023-04-21T18:01:21.351Z,99063.84
2023-04-21T18:03:48.668Z,99060.56
2023-04-21T18:06:16.121Z,99055.97
2023-04-21T18:08:43.267Z,99056.44
2023-04-21T18:11:12.279Z,99055.16
2023-04-21T18:13:39.378Z,99050.69
2023-04-21T18:16:06.951Z,99049.84
2023-04-21T18:18:34.032Z,99054.03
2023-04-21T18:21:09.825Z,99051.22
2023-04-21T18:23:39.701Z,99043.13
2023-04-21T18:26:07.879Z,99045.69
2023-04-21T18:28:36.179Z,99048.81
2023-04-21T18:31:41.658Z,99041.53
2023-04-21T18:34:09.184Z,99043.75
2023-04-21T18:36:38.252Z,99041.06
2023-04-21T18:39:05.675Z,99049.16
2023-04-21T18:41:33.031Z,99044.41
2023-04-21T18:44:00.102Z,99039.28
2023-04-21T18:46:27.231Z,99039.72
2023-04-21T18:48:54.414Z,99033.56
2023-04-21T18:51:21.564Z,99031.78
2023-04-21T18:53:48.689Z,99027.72
2023-04-21T18:56:15.788Z,99036.69
2023-04-21T18:58:42.780Z,99026.63
2023-04-21T19:01:10.089Z,99029.75
2023-04-21T19:03:37.388Z,99033.72
2023-04-21T19:06:04.509Z,99027.13
2023-04-21T19:08:42.277Z,99033.13
2023-04-21T19:11:11.811Z,99029.69
2023-04-21T19:13:39.270Z,99024.81
2023-04-21T19:16:08.540Z,99030.66
2023-04-21T19:18:35.772Z,99023.22
2023-04-21T19:21:04.618Z,99028.66
2023-04-21T19:23:31.676Z,99027.91
2023-04-21T19:26:00.072Z,99018.66
2023-04-21T19:28:27.228Z,99027.59
2023-04-21T19:30:54.330Z,99026.22
2023-04-21T19:33:21.407Z,99027.66
2023-04-21T19:35:48.486Z,99031.03
2023-04-21T19:38:15.603Z,99024.22
2023-04-21T19:40:45.006Z,99027.78
2023-04-21T19:43:12.919Z,99022.41
2023-04-21T19:45:40.015Z,99023.22
2023-04-21T19:48:07.818Z,99021.41
2023-04-21T19:50:35.874Z,99017.91
2023-04-21T19:53:03.673Z,99019.56
2023-04-21T19:55:31.739Z,99022.94
2023-04-21T19:57:58.888Z,99027.06
2023-04-21T20:00:26.019Z,99028.13
2023-04-21T20:02:53.187Z,99022.56
2023-04-21T20:05:20.517Z,99017.22
2023-04-21T20:07:47.527Z,99028.22
2023-04-21T20:10:14.555Z,99020.16
2023-04-21T20:12:41.750Z,99025.94
2023-04-21T20:15:09.343Z,99019.97
2023-04-21T20:17:37.173Z,99021.88
2023-04-21T20:20:09.266Z,99031.56
2023-04-21T20:23:28.319Z,99025.16
2023-04-21T20:26:24.748Z,99023.94
2023-04-21T20:29:15.684Z,99023.53
2023-04-21T20:31:45.491Z,99025.41
2023-04-21T20:37:16.194Z,99027.66
2023-04-21T20:40:21.855Z,99013.66
2023-04-21T20:46:39.205Z,99035.72
2023-04-21T20:50:04.683Z,99027.25
2023-04-21T20:56:09.307Z,99026.63
2023-04-21T20:59:10.332Z,99033.00
2023-04-21T21:01:59.473Z,99028.66
2023-04-21T21:08:34.721Z,99019.56
2023-04-21T21:11:01.870Z,99022.06
2023-04-21T21:13:28.977Z,99023.91
2023-04-21T21:15:56.099Z,99023.50
2023-04-21T21:18:23.379Z,99011.31
2023-04-21T21:20:50.375Z,99019.38
2023-04-21T21:23:17.385Z,99023.53
2023-04-21T21:25:44.437Z,99021.06
2023-04-21T21:28:11.513Z,99012.59
2023-04-21T21:30:38.664Z,99015.91
2023-04-21T21:33:05.761Z,99013.66
2023-04-21T21:35:32.776Z,99016.16
2023-04-21T21:37:59.951Z,99019.44
2023-04-21T21:40:27.048Z,99016.16
2023-04-21T21:42:54.073Z,99016.56
2023-04-21T21:45:21.165Z,99017.00
2023-04-21T21:47:49.112Z,99005.47
2023-04-21T21:50:16.361Z,99011.25
2023-04-21T21:52:43.339Z,99015.19
2023-04-21T21:55:10.505Z,99015.22
2023-04-21T21:57:37.668Z,99022.06
2023-04-21T22:00:08.317Z,99014.59
2023-04-21T22:02:36.256Z,99004.69
2023-04-21T22:05:06.296Z,99009.66
2023-04-21T22:07:33.394Z,99016.69
2023-04-21T22:10:00.519Z,99011.50
2023-04-21T22:12:27.721Z,99004.50
2023-04-21T22:14:54.770Z,99010.69
2023-04-21T22:17:22.747Z,99006.56
2023-04-21T22:19:49.828Z,99005.13
2023-04-21T22:22:17.110Z,99006.38
2023-04-21T22:24:44.181Z,99017.75
2023-04-21T22:27:11.247Z,99008.91
2023-04-21T22:29:38.492Z,99019.63
2023-04-21T22:32:05.761Z,99016.72
2023-04-21T22:34:32.827Z,99010.16
2023-04-21T22:36:59.883Z,99013.84
2023-04-21T22:39:28.933Z,99025.00
2023-04-21T22:41:57.462Z,99017.59
2023-04-21T22:44:24.857Z,99012.84
2023-04-21T22:46:52.051Z,99019.66
2023-04-21T22:49:19.145Z,99018.03
2023-04-21T22:51:47.371Z,99015.75
2023-04-21T22:54:15.129Z,99009.53
2023-04-21T22:56:42.316Z,99007.91
2023-04-21T22:59:09.450Z,99012.63
2023-04-21T23:01:36.477Z,99008.31
2023-04-21T23:04:03.621Z,99013.06
2023-04-21T23:06:32.166Z,99011.41
2023-04-21T23:08:59.318Z,99008.97
2023-04-21T23:11:26.485Z,99010.19
2023-04-21T23:13:54.109Z,99011.41
2023-04-21T23:16:21.295Z,99009.97
2023-04-21T23:18:48.447Z,99011.00
2023-04-21T23:21:15.645Z,99016.38
2023-04-21T23:23:44.988Z,99013.06
2023-04-21T23:26:12.006Z,99015.16
2023-04-21T23:28:39.006Z,99011.03
2023-04-21T23:31:06.226Z,99008.53
2023-04-21T23:33:33.441Z,99015.31
2023-04-21T23:36:00.519Z,99014.28
2023-04-21T23:38:27.557Z,99009.53
2023-04-21T23:41:13.553Z,99008.50
2023-04-21T23:43:40.595Z,99002.72
2023-04-21T23:46:07.691Z,99002.50
2023-04-21T23:48:35.029Z,99001.88
2023-04-21T23:51:02.254Z,99004.34
2023-04-21T23:53:29.448Z,99006.00
2023-04-21T23:55:56.481Z,99000.41
2023-04-21T23:58:23.539Z,98997.75
